Strona główna
METAR-TAF:

METAR-TAF

Lotnisko :

Wiesbaden, Niemcy

Szerokość geograficzna: 50-03N, Długość geograficzna: 008-20E, wysokość: 140 m

Aktualna obserwacja pogody

Raport powstał 1 godzina i 4 minut temu, godzina 12:56 UTC
Wiatr 7 kt od wschodnio-północny wschód
Temperatura 29°C
Wilgotność 31%
Ciśnienie 1020 hPa
Widzialność 10 km lub więcej
bezchmurnie

METAR: ETOU 241256Z AUTO 06007KT 9999 CLR 29/10 A3013 RMK AO2 SLP200 T02870099

czas: 16:00 (14:00 UTC)

Prognoza

Prognoza ważna od 23 godzina 16 UTC do 24 godzina 22 UTC
Wiatr 9 kt od wschód
Widzialność 10 km lub więcej
bezchmurnie
Stopniowe zmiany
od 23 godzina 16 UTC do 23 godzina 17 UTC
Wiatr 6 kt z kierunków zmiennych
Widzialność 10 km lub więcej
bezchmurnie
Stopniowe zmiany
od 24 godzina 10 UTC do 24 godzina 11 UTC
Wiatr 9 kt od wschód
Widzialność: 2603 m
bezchmurnie

TAF: ETOU 2316/2422 10009KT 9999 SKC QNH3019INS BECMG 2316/2317 VRB06KT 9999 SKC QNH3023INS BECMG 2410/2411 08009KT 9999 SKC QNH3025INS TX28/2313Z TN13/2405Z LAST NO AMDS AFT 2318 NEXT 2603

Obserwacja i prognoza pogody dla ponad 4000 lotnisk (raport METAR i TAF).

Dostępne stacje oznaczono żółtymi i czerwonymi punktami na mapie.

Najedź kursorem aby zobaczyć nazwę stacji.

Kliknij aby zobaczyć obserwacje i prognozy pogody.

Aby zmienić mapę: kliknij na zielony przycisk z czarnym krzyżykiem, aby powiększyć; na zielony przycisk z myślnikiem, aby pomniejszyć; na zielone strzałki, aby przejść do map sąsiednich.


METAR-TAF: